sensor_id;sensor_type;location;lat;lon;timestamp;P1;durP1;ratioP1;P2;durP2;ratioP2
9597;SDS011;4837;50.890;4.724;2023-01-19T00:01:23;17.07;;;14.33;;
9597;SDS011;4837;50.890;4.724;2023-01-19T00:03:49;22.57;;;15.40;;
9597;SDS011;4837;50.890;4.724;2023-01-19T00:06:15;20.40;;;15.73;;
9597;SDS011;4837;50.890;4.724;2023-01-19T00:08:41;19.50;;;15.13;;
9597;SDS011;4837;50.890;4.724;2023-01-19T00:11:10;21.97;;;14.90;;
9597;SDS011;4837;50.890;4.724;2023-01-19T00:13:37;21.17;;;15.63;;
9597;SDS011;4837;50.890;4.724;2023-01-19T00:16:03;21.60;;;15.57;;
9597;SDS011;4837;50.890;4.724;2023-01-19T00:18:29;23.50;;;15.97;;
9597;SDS011;4837;50.890;4.724;2023-01-19T00:20:55;19.77;;;15.73;;
9597;SDS011;4837;50.890;4.724;2023-01-19T00:23:21;21.93;;;15.90;;
9597;SDS011;4837;50.890;4.724;2023-01-19T00:25:48;21.33;;;15.23;;
9597;SDS011;4837;50.890;4.724;2023-01-19T00:28:15;19.43;;;14.97;;
9597;SDS011;4837;50.890;4.724;2023-01-19T00:30:42;23.83;;;15.40;;
9597;SDS011;4837;50.890;4.724;2023-01-19T00:33:09;21.00;;;15.20;;
9597;SDS011;4837;50.890;4.724;2023-01-19T00:35:37;22.83;;;14.93;;
9597;SDS011;4837;50.890;4.724;2023-01-19T00:38:04;20.10;;;15.03;;
9597;SDS011;4837;50.890;4.724;2023-01-19T00:40:30;21.83;;;13.63;;
9597;SDS011;4837;50.890;4.724;2023-01-19T00:42:56;21.47;;;14.90;;
9597;SDS011;4837;50.890;4.724;2023-01-19T00:45:22;19.73;;;14.77;;
9597;SDS011;4837;50.890;4.724;2023-01-19T00:47:49;21.13;;;15.27;;
9597;SDS011;4837;50.890;4.724;2023-01-19T00:50:21;23.33;;;14.57;;
9597;SDS011;4837;50.890;4.724;2023-01-19T00:52:48;21.23;;;14.43;;
9597;SDS011;4837;50.890;4.724;2023-01-19T00:55:15;21.93;;;14.93;;
9597;SDS011;4837;50.890;4.724;2023-01-19T00:57:41;22.40;;;16.00;;
9597;SDS011;4837;50.890;4.724;2023-01-19T01:00:08;21.80;;;14.63;;
9597;SDS011;4837;50.890;4.724;2023-01-19T01:02:36;22.97;;;15.50;;
9597;SDS011;4837;50.890;4.724;2023-01-19T01:05:02;24.90;;;15.73;;
9597;SDS011;4837;50.890;4.724;2023-01-19T01:07:30;23.27;;;16.10;;
9597;SDS011;4837;50.890;4.724;2023-01-19T01:09:59;21.27;;;14.70;;
9597;SDS011;4837;50.890;4.724;2023-01-19T01:12:25;20.90;;;14.93;;
9597;SDS011;4837;50.890;4.724;2023-01-19T01:14:52;21.20;;;15.33;;
9597;SDS011;4837;50.890;4.724;2023-01-19T01:17:19;27.13;;;16.27;;
9597;SDS011;4837;50.890;4.724;2023-01-19T01:19:49;22.27;;;15.53;;
9597;SDS011;4837;50.890;4.724;2023-01-19T01:22:16;24.97;;;14.97;;
9597;SDS011;4837;50.890;4.724;2023-01-19T01:24:42;23.10;;;15.33;;
9597;SDS011;4837;50.890;4.724;2023-01-19T01:27:08;23.83;;;16.70;;
9597;SDS011;4837;50.890;4.724;2023-01-19T01:29:34;26.27;;;17.13;;
9597;SDS011;4837;50.890;4.724;2023-01-19T01:32:00;22.07;;;16.73;;
9597;SDS011;4837;50.890;4.724;2023-01-19T01:34:26;23.63;;;16.37;;
9597;SDS011;4837;50.890;4.724;2023-01-19T01:36:53;23.87;;;16.00;;
9597;SDS011;4837;50.890;4.724;2023-01-19T01:39:19;22.63;;;16.37;;
9597;SDS011;4837;50.890;4.724;2023-01-19T01:41:46;26.23;;;16.57;;
9597;SDS011;4837;50.890;4.724;2023-01-19T01:46:57;29.70;;;16.93;;
9597;SDS011;4837;50.890;4.724;2023-01-19T01:49:24;22.73;;;16.20;;
9597;SDS011;4837;50.890;4.724;2023-01-19T01:51:50;23.77;;;15.67;;
9597;SDS011;4837;50.890;4.724;2023-01-19T01:54:22;25.37;;;15.97;;
9597;SDS011;4837;50.890;4.724;2023-01-19T01:56:50;23.93;;;16.23;;
9597;SDS011;4837;50.890;4.724;2023-01-19T01:59:22;27.87;;;15.67;;
9597;SDS011;4837;50.890;4.724;2023-01-19T02:01:55;25.40;;;16.07;;
9597;SDS011;4837;50.890;4.724;2023-01-19T02:04:42;25.63;;;15.57;;
9597;SDS011;4837;50.890;4.724;2023-01-19T02:07:11;28.17;;;17.00;;
9597;SDS011;4837;50.890;4.724;2023-01-19T02:09:57;22.50;;;15.47;;
9597;SDS011;4837;50.890;4.724;2023-01-19T02:12:41;24.60;;;15.60;;
9597;SDS011;4837;50.890;4.724;2023-01-19T02:15:26;25.23;;;14.73;;
9597;SDS011;4837;50.890;4.724;2023-01-19T02:17:52;23.00;;;15.13;;
9597;SDS011;4837;50.890;4.724;2023-01-19T02:20:18;22.27;;;14.80;;
9597;SDS011;4837;50.890;4.724;2023-01-19T02:22:47;24.90;;;14.37;;
9597;SDS011;4837;50.890;4.724;2023-01-19T02:25:13;23.00;;;13.97;;
9597;SDS011;4837;50.890;4.724;2023-01-19T02:27:40;20.23;;;14.67;;
9597;SDS011;4837;50.890;4.724;2023-01-19T02:30:07;21.87;;;14.10;;
9597;SDS011;4837;50.890;4.724;2023-01-19T02:32:34;19.47;;;13.60;;
9597;SDS011;4837;50.890;4.724;2023-01-19T02:35:00;20.87;;;13.53;;
9597;SDS011;4837;50.890;4.724;2023-01-19T02:37:27;20.47;;;14.20;;
9597;SDS011;4837;50.890;4.724;2023-01-19T02:39:55;22.17;;;14.43;;
9597;SDS011;4837;50.890;4.724;2023-01-19T02:44:49;21.80;;;14.17;;
9597;SDS011;4837;50.890;4.724;2023-01-19T02:47:16;22.10;;;13.40;;
9597;SDS011;4837;50.890;4.724;2023-01-19T02:49:43;19.53;;;13.20;;
9597;SDS011;4837;50.890;4.724;2023-01-19T02:52:13;21.40;;;13.80;;
9597;SDS011;4837;50.890;4.724;2023-01-19T02:54:43;22.03;;;13.43;;
9597;SDS011;4837;50.890;4.724;2023-01-19T02:59:56;21.77;;;13.40;;
9597;SDS011;4837;50.890;4.724;2023-01-19T03:13:09;22.07;;;13.63;;
9597;SDS011;4837;50.890;4.724;2023-01-19T03:15:48;19.33;;;13.17;;
9597;SDS011;4837;50.890;4.724;2023-01-19T03:18:17;18.37;;;13.20;;
9597;SDS011;4837;50.890;4.724;2023-01-19T03:20:44;19.73;;;13.37;;
9597;SDS011;4837;50.890;4.724;2023-01-19T03:23:11;19.77;;;12.43;;
9597;SDS011;4837;50.890;4.724;2023-01-19T03:25:40;21.00;;;13.00;;
9597;SDS011;4837;50.890;4.724;2023-01-19T03:28:07;22.73;;;13.13;;
9597;SDS011;4837;50.890;4.724;2023-01-19T03:30:37;20.83;;;13.70;;
9597;SDS011;4837;50.890;4.724;2023-01-19T03:33:08;24.33;;;13.23;;
9597;SDS011;4837;50.890;4.724;2023-01-19T03:35:37;19.73;;;12.93;;
9597;SDS011;4837;50.890;4.724;2023-01-19T03:38:06;19.07;;;12.67;;
9597;SDS011;4837;50.890;4.724;2023-01-19T03:40:34;18.97;;;12.27;;
9597;SDS011;4837;50.890;4.724;2023-01-19T03:43:01;18.33;;;12.63;;
9597;SDS011;4837;50.890;4.724;2023-01-19T03:45:30;21.93;;;11.80;;
9597;SDS011;4837;50.890;4.724;2023-01-19T03:47:58;20.53;;;12.80;;
9597;SDS011;4837;50.890;4.724;2023-01-19T03:50:26;20.57;;;12.73;;
9597;SDS011;4837;50.890;4.724;2023-01-19T03:52:59;19.70;;;11.37;;
9597;SDS011;4837;50.890;4.724;2023-01-19T03:55:25;17.67;;;12.07;;
9597;SDS011;4837;50.890;4.724;2023-01-19T03:57:51;15.90;;;11.33;;
9597;SDS011;4837;50.890;4.724;2023-01-19T04:00:18;17.10;;;11.43;;
9597;SDS011;4837;50.890;4.724;2023-01-19T04:02:44;16.07;;;11.17;;
9597;SDS011;4837;50.890;4.724;2023-01-19T04:05:10;18.93;;;10.90;;
9597;SDS011;4837;50.890;4.724;2023-01-19T04:07:36;17.17;;;11.97;;
9597;SDS011;4837;50.890;4.724;2023-01-19T04:10:02;18.50;;;11.33;;
9597;SDS011;4837;50.890;4.724;2023-01-19T04:12:29;18.70;;;11.50;;
9597;SDS011;4837;50.890;4.724;2023-01-19T04:14:55;18.47;;;11.87;;
9597;SDS011;4837;50.890;4.724;2023-01-19T04:17:21;20.13;;;12.30;;
9597;SDS011;4837;50.890;4.724;2023-01-19T04:19:47;23.03;;;11.87;;
9597;SDS011;4837;50.890;4.724;2023-01-19T04:22:13;21.20;;;12.20;;
9597;SDS011;4837;50.890;4.724;2023-01-19T04:24:39;21.83;;;12.37;;
9597;SDS011;4837;50.890;4.724;2023-01-19T04:27:05;21.33;;;12.80;;
9597;SDS011;4837;50.890;4.724;2023-01-19T04:29:31;19.83;;;12.60;;
9597;SDS011;4837;50.890;4.724;2023-01-19T04:31:57;18.77;;;12.23;;
9597;SDS011;4837;50.890;4.724;2023-01-19T04:34:24;21.13;;;13.07;;
9597;SDS011;4837;50.890;4.724;2023-01-19T04:36:50;23.57;;;13.07;;
9597;SDS011;4837;50.890;4.724;2023-01-19T04:39:16;21.57;;;13.53;;
9597;SDS011;4837;50.890;4.724;2023-01-19T04:41:42;20.53;;;12.97;;
9597;SDS011;4837;50.890;4.724;2023-01-19T04:44:08;19.17;;;13.00;;
9597;SDS011;4837;50.890;4.724;2023-01-19T04:46:34;20.53;;;13.40;;
9597;SDS011;4837;50.890;4.724;2023-01-19T04:49:00;23.23;;;12.63;;
9597;SDS011;4837;50.890;4.724;2023-01-19T04:51:26;20.53;;;13.30;;
9597;SDS011;4837;50.890;4.724;2023-01-19T04:53:53;20.93;;;13.47;;
9597;SDS011;4837;50.890;4.724;2023-01-19T04:56:19;21.23;;;13.43;;
9597;SDS011;4837;50.890;4.724;2023-01-19T04:58:45;23.53;;;14.90;;
9597;SDS011;4837;50.890;4.724;2023-01-19T05:01:11;21.47;;;13.70;;
9597;SDS011;4837;50.890;4.724;2023-01-19T05:03:37;22.73;;;14.03;;
9597;SDS011;4837;50.890;4.724;2023-01-19T05:06:04;23.57;;;13.77;;
9597;SDS011;4837;50.890;4.724;2023-01-19T05:08:31;27.97;;;14.67;;
9597;SDS011;4837;50.890;4.724;2023-01-19T05:10:57;23.93;;;15.23;;
9597;SDS011;4837;50.890;4.724;2023-01-19T05:13:24;23.77;;;14.57;;
9597;SDS011;4837;50.890;4.724;2023-01-19T05:15:50;25.30;;;15.83;;
9597;SDS011;4837;50.890;4.724;2023-01-19T05:18:16;27.77;;;15.67;;
9597;SDS011;4837;50.890;4.724;2023-01-19T05:20:42;27.77;;;15.10;;
9597;SDS011;4837;50.890;4.724;2023-01-19T05:23:09;29.30;;;15.87;;
9597;SDS011;4837;50.890;4.724;2023-01-19T05:25:35;25.20;;;15.17;;
9597;SDS011;4837;50.890;4.724;2023-01-19T05:28:01;26.97;;;15.63;;
9597;SDS011;4837;50.890;4.724;2023-01-19T05:30:27;25.37;;;16.03;;
9597;SDS011;4837;50.890;4.724;2023-01-19T05:32:53;25.23;;;15.73;;
9597;SDS011;4837;50.890;4.724;2023-01-19T05:35:19;27.03;;;15.97;;
9597;SDS011;4837;50.890;4.724;2023-01-19T05:37:45;23.73;;;15.27;;
9597;SDS011;4837;50.890;4.724;2023-01-19T05:40:11;30.53;;;17.20;;
9597;SDS011;4837;50.890;4.724;2023-01-19T05:42:37;26.43;;;16.03;;
9597;SDS011;4837;50.890;4.724;2023-01-19T05:45:04;28.47;;;16.30;;
9597;SDS011;4837;50.890;4.724;2023-01-19T05:47:30;31.50;;;17.20;;
9597;SDS011;4837;50.890;4.724;2023-01-19T05:49:56;26.07;;;17.07;;
9597;SDS011;4837;50.890;4.724;2023-01-19T05:52:22;28.70;;;16.70;;
9597;SDS011;4837;50.890;4.724;2023-01-19T05:54:49;31.70;;;18.00;;
9597;SDS011;4837;50.890;4.724;2023-01-19T05:57:15;32.87;;;19.47;;
9597;SDS011;4837;50.890;4.724;2023-01-19T05:59:42;30.33;;;17.23;;
9597;SDS011;4837;50.890;4.724;2023-01-19T06:02:08;34.90;;;18.40;;
9597;SDS011;4837;50.890;4.724;2023-01-19T06:04:35;28.57;;;17.77;;
9597;SDS011;4837;50.890;4.724;2023-01-19T06:07:01;31.40;;;17.87;;
9597;SDS011;4837;50.890;4.724;2023-01-19T06:09:27;32.20;;;18.07;;
9597;SDS011;4837;50.890;4.724;2023-01-19T06:11:53;33.40;;;18.23;;
9597;SDS011;4837;50.890;4.724;2023-01-19T06:14:21;30.07;;;18.03;;
9597;SDS011;4837;50.890;4.724;2023-01-19T06:16:47;32.13;;;18.60;;
9597;SDS011;4837;50.890;4.724;2023-01-19T06:19:13;30.93;;;18.93;;
9597;SDS011;4837;50.890;4.724;2023-01-19T06:21:40;36.23;;;18.77;;
9597;SDS011;4837;50.890;4.724;2023-01-19T06:24:06;33.03;;;19.20;;
9597;SDS011;4837;50.890;4.724;2023-01-19T06:26:32;32.20;;;17.80;;
9597;SDS011;4837;50.890;4.724;2023-01-19T06:28:59;34.20;;;18.90;;
9597;SDS011;4837;50.890;4.724;2023-01-19T06:31:25;32.00;;;17.57;;
9597;SDS011;4837;50.890;4.724;2023-01-19T06:33:51;32.80;;;18.07;;
9597;SDS011;4837;50.890;4.724;2023-01-19T06:36:17;33.40;;;18.43;;
9597;SDS011;4837;50.890;4.724;2023-01-19T06:38:43;33.37;;;18.47;;
9597;SDS011;4837;50.890;4.724;2023-01-19T06:41:09;29.53;;;18.50;;
9597;SDS011;4837;50.890;4.724;2023-01-19T06:43:36;33.47;;;18.60;;
9597;SDS011;4837;50.890;4.724;2023-01-19T06:46:02;29.83;;;17.80;;
9597;SDS011;4837;50.890;4.724;2023-01-19T06:48:28;29.97;;;18.33;;
9597;SDS011;4837;50.890;4.724;2023-01-19T06:50:54;28.93;;;17.80;;
9597;SDS011;4837;50.890;4.724;2023-01-19T06:53:21;30.10;;;18.90;;
9597;SDS011;4837;50.890;4.724;2023-01-19T06:55:47;28.47;;;18.57;;
9597;SDS011;4837;50.890;4.724;2023-01-19T06:58:13;32.43;;;19.03;;
9597;SDS011;4837;50.890;4.724;2023-01-19T07:00:39;34.13;;;19.20;;
9597;SDS011;4837;50.890;4.724;2023-01-19T07:03:05;36.23;;;19.63;;
9597;SDS011;4837;50.890;4.724;2023-01-19T07:05:33;31.57;;;17.90;;
9597;SDS011;4837;50.890;4.724;2023-01-19T07:07:59;31.23;;;18.60;;
9597;SDS011;4837;50.890;4.724;2023-01-19T07:10:25;32.20;;;17.97;;
9597;SDS011;4837;50.890;4.724;2023-01-19T07:12:51;30.60;;;18.37;;
9597;SDS011;4837;50.890;4.724;2023-01-19T07:15:17;31.60;;;18.77;;
9597;SDS011;4837;50.890;4.724;2023-01-19T07:17:44;30.73;;;18.00;;
9597;SDS011;4837;50.890;4.724;2023-01-19T07:20:10;29.70;;;17.03;;
9597;SDS011;4837;50.890;4.724;2023-01-19T07:22:38;29.60;;;16.90;;
9597;SDS011;4837;50.890;4.724;2023-01-19T07:25:05;33.70;;;18.00;;
9597;SDS011;4837;50.890;4.724;2023-01-19T07:27:31;31.03;;;17.93;;
9597;SDS011;4837;50.890;4.724;2023-01-19T07:29:57;31.90;;;17.57;;
9597;SDS011;4837;50.890;4.724;2023-01-19T07:32:25;27.37;;;17.17;;
9597;SDS011;4837;50.890;4.724;2023-01-19T07:34:51;29.97;;;17.13;;
9597;SDS011;4837;50.890;4.724;2023-01-19T07:37:17;28.37;;;17.37;;
9597;SDS011;4837;50.890;4.724;2023-01-19T07:39:43;32.50;;;18.23;;
9597;SDS011;4837;50.890;4.724;2023-01-19T07:42:09;30.07;;;17.43;;
9597;SDS011;4837;50.890;4.724;2023-01-19T07:44:36;30.93;;;17.47;;
9597;SDS011;4837;50.890;4.724;2023-01-19T07:47:02;32.03;;;17.83;;
9597;SDS011;4837;50.890;4.724;2023-01-19T07:49:31;31.57;;;17.27;;
9597;SDS011;4837;50.890;4.724;2023-01-19T07:51:57;31.43;;;17.83;;
9597;SDS011;4837;50.890;4.724;2023-01-19T07:54:23;31.17;;;17.53;;
9597;SDS011;4837;50.890;4.724;2023-01-19T07:56:52;33.97;;;18.73;;
9597;SDS011;4837;50.890;4.724;2023-01-19T07:59:18;29.30;;;18.03;;
9597;SDS011;4837;50.890;4.724;2023-01-19T08:01:48;36.77;;;19.33;;
9597;SDS011;4837;50.890;4.724;2023-01-19T08:04:14;35.73;;;19.00;;
9597;SDS011;4837;50.890;4.724;2023-01-19T08:06:42;28.93;;;17.73;;
9597;SDS011;4837;50.890;4.724;2023-01-19T08:09:09;34.23;;;19.17;;
9597;SDS011;4837;50.890;4.724;2023-01-19T08:11:36;29.53;;;17.80;;
9597;SDS011;4837;50.890;4.724;2023-01-19T08:14:02;36.07;;;19.20;;
9597;SDS011;4837;50.890;4.724;2023-01-19T08:16:28;33.87;;;19.07;;
9597;SDS011;4837;50.890;4.724;2023-01-19T08:18:54;33.67;;;18.77;;
9597;SDS011;4837;50.890;4.724;2023-01-19T08:21:20;35.47;;;19.00;;
9597;SDS011;4837;50.890;4.724;2023-01-19T08:23:50;33.60;;;18.40;;
9597;SDS011;4837;50.890;4.724;2023-01-19T08:26:35;32.53;;;18.73;;
9597;SDS011;4837;50.890;4.724;2023-01-19T08:29:04;36.80;;;18.80;;
9597;SDS011;4837;50.890;4.724;2023-01-19T08:31:30;32.63;;;18.10;;
9597;SDS011;4837;50.890;4.724;2023-01-19T08:34:00;34.40;;;18.83;;
9597;SDS011;4837;50.890;4.724;2023-01-19T08:36:26;28.70;;;16.93;;
9597;SDS011;4837;50.890;4.724;2023-01-19T08:38:52;31.20;;;17.27;;
9597;SDS011;4837;50.890;4.724;2023-01-19T08:41:19;32.33;;;17.47;;
9597;SDS011;4837;50.890;4.724;2023-01-19T08:43:45;26.07;;;16.57;;
9597;SDS011;4837;50.890;4.724;2023-01-19T08:46:11;30.40;;;16.03;;
9597;SDS011;4837;50.890;4.724;2023-01-19T08:48:41;27.33;;;16.13;;
9597;SDS011;4837;50.890;4.724;2023-01-19T08:51:10;27.17;;;15.90;;
9597;SDS011;4837;50.890;4.724;2023-01-19T08:53:37;27.03;;;16.23;;
9597;SDS011;4837;50.890;4.724;2023-01-19T08:56:06;28.40;;;15.67;;
9597;SDS011;4837;50.890;4.724;2023-01-19T08:58:36;24.13;;;15.83;;
9597;SDS011;4837;50.890;4.724;2023-01-19T09:01:03;26.20;;;16.00;;
9597;SDS011;4837;50.890;4.724;2023-01-19T09:03:29;26.03;;;15.30;;
9597;SDS011;4837;50.890;4.724;2023-01-19T09:05:55;25.17;;;15.27;;
9597;SDS011;4837;50.890;4.724;2023-01-19T09:08:21;26.67;;;15.60;;
9597;SDS011;4837;50.890;4.724;2023-01-19T09:10:48;25.77;;;15.63;;
9597;SDS011;4837;50.890;4.724;2023-01-19T09:13:15;27.17;;;14.97;;
9597;SDS011;4837;50.890;4.724;2023-01-19T09:15:42;23.70;;;14.77;;
9597;SDS011;4837;50.890;4.724;2023-01-19T09:18:13;27.33;;;15.33;;
9597;SDS011;4837;50.890;4.724;2023-01-19T09:20:39;24.67;;;15.07;;
9597;SDS011;4837;50.890;4.724;2023-01-19T09:23:07;26.27;;;15.17;;
9597;SDS011;4837;50.890;4.724;2023-01-19T09:25:41;22.93;;;14.03;;
9597;SDS011;4837;50.890;4.724;2023-01-19T09:28:08;25.13;;;14.90;;
9597;SDS011;4837;50.890;4.724;2023-01-19T09:30:36;26.47;;;14.97;;
9597;SDS011;4837;50.890;4.724;2023-01-19T09:33:04;26.13;;;15.03;;
9597;SDS011;4837;50.890;4.724;2023-01-19T09:35:33;25.30;;;15.10;;
9597;SDS011;4837;50.890;4.724;2023-01-19T09:37:59;28.53;;;14.50;;
9597;SDS011;4837;50.890;4.724;2023-01-19T09:40:26;26.70;;;14.83;;
9597;SDS011;4837;50.890;4.724;2023-01-19T09:42:54;28.07;;;14.60;;
9597;SDS011;4837;50.890;4.724;2023-01-19T09:45:34;29.17;;;15.07;;
9597;SDS011;4837;50.890;4.724;2023-01-19T09:48:01;25.00;;;15.03;;
9597;SDS011;4837;50.890;4.724;2023-01-19T09:50:33;24.23;;;14.23;;
9597;SDS011;4837;50.890;4.724;2023-01-19T09:53:19;27.67;;;14.43;;
9597;SDS011;4837;50.890;4.724;2023-01-19T09:55:48;25.77;;;14.80;;
9597;SDS011;4837;50.890;4.724;2023-01-19T09:58:15;25.20;;;14.60;;
9597;SDS011;4837;50.890;4.724;2023-01-19T10:00:46;25.30;;;14.43;;
9597;SDS011;4837;50.890;4.724;2023-01-19T10:03:16;24.27;;;14.33;;
9597;SDS011;4837;50.890;4.724;2023-01-19T10:05:52;25.70;;;13.70;;
9597;SDS011;4837;50.890;4.724;2023-01-19T10:10:53;27.03;;;13.77;;
9597;SDS011;4837;50.890;4.724;2023-01-19T10:16:03;26.13;;;13.47;;
9597;SDS011;4837;50.890;4.724;2023-01-19T10:18:42;25.67;;;14.10;;
9597;SDS011;4837;50.890;4.724;2023-01-19T10:26:18;21.57;;;12.90;;
9597;SDS011;4837;50.890;4.724;2023-01-19T10:28:47;20.40;;;12.90;;
9597;SDS011;4837;50.890;4.724;2023-01-19T10:31:14;20.57;;;12.50;;
9597;SDS011;4837;50.890;4.724;2023-01-19T10:33:44;25.93;;;13.23;;
9597;SDS011;4837;50.890;4.724;2023-01-19T10:36:20;25.17;;;13.27;;
9597;SDS011;4837;50.890;4.724;2023-01-19T10:38:46;23.20;;;11.67;;
9597;SDS011;4837;50.890;4.724;2023-01-19T10:41:17;24.73;;;12.23;;
9597;SDS011;4837;50.890;4.724;2023-01-19T10:43:44;20.03;;;12.17;;
9597;SDS011;4837;50.890;4.724;2023-01-19T10:46:18;25.13;;;12.50;;
9597;SDS011;4837;50.890;4.724;2023-01-19T10:48:47;19.30;;;11.93;;
9597;SDS011;4837;50.890;4.724;2023-01-19T10:51:13;22.43;;;11.87;;
9597;SDS011;4837;50.890;4.724;2023-01-19T10:53:40;22.37;;;12.17;;
9597;SDS011;4837;50.890;4.724;2023-01-19T10:56:09;21.00;;;11.30;;
9597;SDS011;4837;50.890;4.724;2023-01-19T10:58:36;19.60;;;11.90;;
9597;SDS011;4837;50.890;4.724;2023-01-19T11:01:16;19.10;;;11.97;;
9597;SDS011;4837;50.890;4.724;2023-01-19T11:03:42;22.77;;;11.87;;
9597;SDS011;4837;50.890;4.724;2023-01-19T11:08:40;23.33;;;12.73;;
9597;SDS011;4837;50.890;4.724;2023-01-19T11:11:06;23.90;;;12.30;;
9597;SDS011;4837;50.890;4.724;2023-01-19T11:13:33;19.00;;;11.57;;
9597;SDS011;4837;50.890;4.724;2023-01-19T11:16:04;21.30;;;12.10;;
9597;SDS011;4837;50.890;4.724;2023-01-19T11:18:38;20.27;;;12.20;;
9597;SDS011;4837;50.890;4.724;2023-01-19T11:21:14;22.70;;;12.40;;
9597;SDS011;4837;50.890;4.724;2023-01-19T11:23:51;20.83;;;12.47;;
9597;SDS011;4837;50.890;4.724;2023-01-19T11:26:26;22.90;;;13.07;;
9597;SDS011;4837;50.890;4.724;2023-01-19T11:28:54;20.70;;;12.60;;
9597;SDS011;4837;50.890;4.724;2023-01-19T11:33:54;27.10;;;12.43;;
9597;SDS011;4837;50.890;4.724;2023-01-19T11:36:28;22.33;;;13.03;;
9597;SDS011;4837;50.890;4.724;2023-01-19T11:38:55;20.30;;;13.03;;
9597;SDS011;4837;50.890;4.724;2023-01-19T11:41:25;22.60;;;12.57;;
9597;SDS011;4837;50.890;4.724;2023-01-19T11:43:52;22.57;;;13.07;;
9597;SDS011;4837;50.890;4.724;2023-01-19T11:46:19;24.07;;;12.83;;
9597;SDS011;4837;50.890;4.724;2023-01-19T11:51:24;22.73;;;12.87;;
9597;SDS011;4837;50.890;4.724;2023-01-19T11:53:51;22.73;;;12.57;;
9597;SDS011;4837;50.890;4.724;2023-01-19T11:56:19;25.13;;;13.50;;
9597;SDS011;4837;50.890;4.724;2023-01-19T11:58:47;23.23;;;14.07;;
9597;SDS011;4837;50.890;4.724;2023-01-19T12:01:24;22.93;;;12.93;;
9597;SDS011;4837;50.890;4.724;2023-01-19T12:06:19;22.73;;;12.63;;
9597;SDS011;4837;50.890;4.724;2023-01-19T12:08:54;22.43;;;12.83;;
9597;SDS011;4837;50.890;4.724;2023-01-19T12:11:25;21.63;;;13.13;;
9597;SDS011;4837;50.890;4.724;2023-01-19T12:13:54;24.67;;;13.30;;
9597;SDS011;4837;50.890;4.724;2023-01-19T12:16:21;22.00;;;13.77;;
9597;SDS011;4837;50.890;4.724;2023-01-19T12:19:05;26.17;;;14.63;;
9597;SDS011;4837;50.890;4.724;2023-01-19T12:21:32;22.40;;;13.90;;
9597;SDS011;4837;50.890;4.724;2023-01-19T12:29:10;21.40;;;12.47;;
9597;SDS011;4837;50.890;4.724;2023-01-19T12:31:36;22.57;;;13.30;;
9597;SDS011;4837;50.890;4.724;2023-01-19T12:36:50;25.23;;;14.20;;
9597;SDS011;4837;50.890;4.724;2023-01-19T12:39:17;27.60;;;13.90;;
9597;SDS011;4837;50.890;4.724;2023-01-19T12:41:44;25.53;;;14.07;;
9597;SDS011;4837;50.890;4.724;2023-01-19T12:46:44;28.47;;;14.17;;
9597;SDS011;4837;50.890;4.724;2023-01-19T12:49:28;27.70;;;13.53;;
9597;SDS011;4837;50.890;4.724;2023-01-19T12:54:36;26.23;;;13.97;;
9597;SDS011;4837;50.890;4.724;2023-01-19T12:57:07;27.17;;;13.77;;
9597;SDS011;4837;50.890;4.724;2023-01-19T12:59:34;23.80;;;12.90;;
9597;SDS011;4837;50.890;4.724;2023-01-19T13:07:27;28.23;;;15.07;;
9597;SDS011;4837;50.890;4.724;2023-01-19T13:09:53;21.53;;;13.43;;
9597;SDS011;4837;50.890;4.724;2023-01-19T13:12:24;23.43;;;13.83;;
9597;SDS011;4837;50.890;4.724;2023-01-19T13:14:50;21.17;;;12.60;;
9597;SDS011;4837;50.890;4.724;2023-01-19T13:17:57;24.60;;;13.20;;
9597;SDS011;4837;50.890;4.724;2023-01-19T13:20:24;29.33;;;13.50;;
9597;SDS011;4837;50.890;4.724;2023-01-19T13:23:13;21.70;;;12.70;;
9597;SDS011;4837;50.890;4.724;2023-01-19T13:25:40;25.00;;;12.43;;
9597;SDS011;4837;50.890;4.724;2023-01-19T13:28:09;20.00;;;12.93;;
9597;SDS011;4837;50.890;4.724;2023-01-19T13:30:36;19.33;;;11.57;;
9597;SDS011;4837;50.890;4.724;2023-01-19T13:33:16;20.23;;;10.97;;
9597;SDS011;4837;50.890;4.724;2023-01-19T13:35:50;19.93;;;11.70;;
9597;SDS011;4837;50.890;4.724;2023-01-19T13:38:17;19.83;;;11.87;;
9597;SDS011;4837;50.890;4.724;2023-01-19T13:40:44;20.67;;;11.77;;
9597;SDS011;4837;50.890;4.724;2023-01-19T13:43:15;20.60;;;11.53;;
9597;SDS011;4837;50.890;4.724;2023-01-19T13:45:44;19.63;;;11.43;;
9597;SDS011;4837;50.890;4.724;2023-01-19T13:48:13;17.50;;;11.83;;
9597;SDS011;4837;50.890;4.724;2023-01-19T13:50:40;17.70;;;10.97;;
9597;SDS011;4837;50.890;4.724;2023-01-19T13:53:15;20.77;;;10.30;;
9597;SDS011;4837;50.890;4.724;2023-01-19T13:55:41;20.17;;;10.33;;
9597;SDS011;4837;50.890;4.724;2023-01-19T13:58:20;20.57;;;9.97;;
9597;SDS011;4837;50.890;4.724;2023-01-19T14:00:47;21.30;;;9.63;;
9597;SDS011;4837;50.890;4.724;2023-01-19T14:03:20;15.67;;;10.20;;
9597;SDS011;4837;50.890;4.724;2023-01-19T14:05:51;17.67;;;9.50;;
9597;SDS011;4837;50.890;4.724;2023-01-19T14:08:18;15.03;;;8.83;;
9597;SDS011;4837;50.890;4.724;2023-01-19T14:10:45;14.20;;;8.70;;
9597;SDS011;4837;50.890;4.724;2023-01-19T14:13:15;20.20;;;9.40;;
9597;SDS011;4837;50.890;4.724;2023-01-19T14:15:42;15.93;;;9.57;;
9597;SDS011;4837;50.890;4.724;2023-01-19T14:21:41;15.50;;;9.53;;
9597;SDS011;4837;50.890;4.724;2023-01-19T14:26:03;19.50;;;9.57;;
9597;SDS011;4837;50.890;4.724;2023-01-19T14:28:33;16.20;;;9.07;;
9597;SDS011;4837;50.890;4.724;2023-01-19T14:31:00;14.40;;;9.40;;
9597;SDS011;4837;50.890;4.724;2023-01-19T14:33:40;18.20;;;9.90;;
9597;SDS011;4837;50.890;4.724;2023-01-19T14:36:32;16.67;;;10.20;;
9597;SDS011;4837;50.890;4.724;2023-01-19T14:38:57;20.00;;;10.67;;
9597;SDS011;4837;50.890;4.724;2023-01-19T14:41:26;20.83;;;12.23;;
9597;SDS011;4837;50.890;4.724;2023-01-19T14:43:53;17.37;;;11.97;;
9597;SDS011;4837;50.890;4.724;2023-01-19T14:46:23;24.07;;;11.33;;
9597;SDS011;4837;50.890;4.724;2023-01-19T14:48:50;18.67;;;10.73;;
9597;SDS011;4837;50.890;4.724;2023-01-19T14:51:18;20.87;;;11.60;;
9597;SDS011;4837;50.890;4.724;2023-01-19T14:53:54;21.37;;;11.40;;
9597;SDS011;4837;50.890;4.724;2023-01-19T14:56:28;23.33;;;12.07;;
9597;SDS011;4837;50.890;4.724;2023-01-19T14:58:55;18.97;;;12.43;;
9597;SDS011;4837;50.890;4.724;2023-01-19T15:01:22;20.17;;;11.70;;
9597;SDS011;4837;50.890;4.724;2023-01-19T15:03:52;20.50;;;12.63;;
9597;SDS011;4837;50.890;4.724;2023-01-19T15:06:20;22.53;;;13.47;;
9597;SDS011;4837;50.890;4.724;2023-01-19T15:08:47;17.90;;;11.10;;
9597;SDS011;4837;50.890;4.724;2023-01-19T15:13:49;17.83;;;11.63;;
9597;SDS011;4837;50.890;4.724;2023-01-19T15:16:16;20.63;;;11.80;;
9597;SDS011;4837;50.890;4.724;2023-01-19T15:18:42;16.73;;;10.93;;
9597;SDS011;4837;50.890;4.724;2023-01-19T15:21:15;21.53;;;11.83;;
9597;SDS011;4837;50.890;4.724;2023-01-19T15:23:44;19.83;;;11.27;;
9597;SDS011;4837;50.890;4.724;2023-01-19T15:26:12;19.23;;;11.90;;
9597;SDS011;4837;50.890;4.724;2023-01-19T15:28:39;21.27;;;13.03;;
9597;SDS011;4837;50.890;4.724;2023-01-19T15:31:06;22.90;;;13.37;;
9597;SDS011;4837;50.890;4.724;2023-01-19T15:33:32;20.77;;;13.20;;
9597;SDS011;4837;50.890;4.724;2023-01-19T15:35:58;21.77;;;13.50;;
9597;SDS011;4837;50.890;4.724;2023-01-19T15:38:25;22.60;;;13.13;;
9597;SDS011;4837;50.890;4.724;2023-01-19T15:40:51;23.47;;;13.90;;
9597;SDS011;4837;50.890;4.724;2023-01-19T15:43:17;22.73;;;12.80;;
9597;SDS011;4837;50.890;4.724;2023-01-19T15:45:47;27.57;;;16.37;;
9597;SDS011;4837;50.890;4.724;2023-01-19T15:48:14;22.90;;;14.90;;
9597;SDS011;4837;50.890;4.724;2023-01-19T15:50:41;24.87;;;14.27;;
9597;SDS011;4837;50.890;4.724;2023-01-19T15:53:15;24.77;;;14.93;;
9597;SDS011;4837;50.890;4.724;2023-01-19T15:55:41;21.67;;;14.90;;
9597;SDS011;4837;50.890;4.724;2023-01-19T15:58:07;23.20;;;15.20;;
9597;SDS011;4837;50.890;4.724;2023-01-19T16:00:33;21.70;;;14.20;;